Karen C — 2DCC7 — position and weather

sailwx.info

Track history (hours):
 
Tides and Currents Weather Stations Pressure Air Temp Water Temp Dewpoint Dewpoint Depression Visibility Wind Speed Wind Dir Waves Ship Positions

Karen C

Last reported at 2017-Nov-23 02:09 UTC. Time now 2017-Nov-23 22:23 UTC.
Position N 39°16' W 009°50'.

Length 105 m; draft 6.5 m.

Type: Cargo ship. MMSI: 235077715.

Date/timePositionNaut miles runAvg speedWind from/ knotsBaromVisibWave heightAir tempDewpointWater temp
2017-Nov-23 02:09N 39°16' W 009°50'110.4
2017-Nov-23 02:00N 39°14' W 009°50'510.4
2017-Nov-23 01:30N 39°09' W 009°50'510.5
2017-Nov-23 01:00N 39°04' W 009°50'510.2
2017-Nov-23 00:30N 38°59' W 009°50'510.3
2017-Nov-23 00:00N 38°53' W 009°51'510.4
2017-Nov-22 23:30N 38°48' W 009°51'510.2
2017-Nov-22 23:00N 38°43' W 009°50'5 9.7
2017-Nov-22 22:30N 38°38' W 009°48'5 9.2
2017-Nov-22 22:01N 38°35' W 009°44'5 9.4
2017-Nov-22 21:30N 38°32' W 009°40'5 9.9
2017-Nov-22 21:00N 38°28' W 009°35'510.1
2017-Nov-22 20:30N 38°25' W 009°31'510.2
2017-Nov-22 20:00N 38°21' W 009°27'510.3
2017-Nov-22 19:31N 38°17' W 009°22'  
2017-Nov-20 00:29N 37°56' W 008°51'0 0.0
2017-Nov-19 23:59N 37°56' W 008°51'0 0.0
2017-Nov-19 23:29N 37°56' W 008°51'0 0.0
2017-Nov-19 22:59N 37°56' W 008°51'0 0.0
2017-Nov-19 22:29N 37°56' W 008°51'0 0.0
2017-Nov-19 21:59N 37°56' W 008°51'0 0.0
2017-Nov-19 21:29N 37°56' W 008°51'0 0.0
2017-Nov-19 20:59N 37°56' W 008°51'0 0.0
2017-Nov-19 20:29N 37°56' W 008°51'0 0.0
2017-Nov-19 19:59N 37°56' W 008°51'0 0.0
2017-Nov-19 19:29N 37°56' W 008°51'0 0.0
2017-Nov-19 18:59N 37°56' W 008°51'0 0.0
2017-Nov-19 18:29N 37°56' W 008°51'0 0.0
2017-Nov-19 17:59N 37°56' W 008°51'0 0.0
2017-Nov-19 17:29N 37°56' W 008°51'0 0.0
2017-Nov-19 16:56N 37°56' W 008°51'0 0.0
2017-Nov-19 16:26N 37°56' W 008°51'0 0.0
2017-Nov-19 15:59N 37°56' W 008°51'0 0.0
2017-Nov-19 15:29N 37°56' W 008°51'0 0.0
2017-Nov-19 14:59N 37°56' W 008°51'0 0.0
2017-Nov-19 14:29N 37°56' W 008°51'0 0.0
2017-Nov-19 13:59N 37°56' W 008°51'0 0.0
2017-Nov-19 13:29N 37°56' W 008°51'0 0.0
2017-Nov-19 12:59N 37°56' W 008°51'0 0.0
2017-Nov-19 12:29N 37°56' W 008°51'0 0.0
2017-Nov-19 11:59N 37°56' W 008°51'0 0.0
2017-Nov-19 11:29N 37°56' W 008°51'0 0.0
2017-Nov-19 10:59N 37°56' W 008°51'0 0.0
2017-Nov-19 10:29N 37°56' W 008°51'0 0.0
2017-Nov-19 09:59N 37°56' W 008°51'0 0.0
2017-Nov-19 09:29N 37°56' W 008°51'0 0.0
2017-Nov-19 08:59N 37°56' W 008°51'0 0.0
2017-Nov-19 08:29N 37°56' W 008°51'0 0.0
2017-Nov-19 07:59N 37°56' W 008°51'0 0.0
2017-Nov-19 07:29N 37°56' W 008°51'0 0.0
2017-Nov-19 06:59N 37°56' W 008°51'0 0.0
2017-Nov-19 06:29N 37°56' W 008°51'0 0.0
2017-Nov-19 05:59N 37°56' W 008°51'0 0.0
2017-Nov-19 05:29N 37°56' W 008°51'0 0.0
2017-Nov-19 04:59N 37°56' W 008°51'0 0.0
2017-Nov-19 04:29N 37°56' W 008°51'0 0.0
2017-Nov-19 03:59N 37°56' W 008°51'0 0.0
2017-Nov-19 03:29N 37°56' W 008°51'0 0.0
2017-Nov-19 02:59N 37°56' W 008°51'0 0.0
2017-Nov-19 02:29N 37°56' W 008°51'0 0.0
2017-Nov-19 01:59N 37°56' W 008°51'0 0.2
2017-Nov-19 01:30N 37°56' W 008°52'2 3.5
2017-Nov-19 01:01N 37°55' W 008°53'3 7.0
2017-Nov-19 00:31N 37°52' W 008°55'2 3.6
2017-Nov-19 00:01N 37°50' W 008°56'4 7.2
2017-Nov-18 23:31N 37°47' W 008°57'5 9.4
2017-Nov-18 23:01N 37°42' W 008°60'510.4
2017-Nov-18 22:30N 37°38' W 009°03'510.9
2017-Nov-18 22:00N 37°33' W 009°05'511.0
2017-Nov-18 21:31N 37°28' W 009°08'510.8
2017-Nov-18 21:00N 37°23' W 009°10'510.9
2017-Nov-18 20:30N 37°17' W 009°12'510.5
2017-Nov-18 20:01N 37°12' W 009°14'510.1
2017-Nov-18 19:30N 37°08' W 009°17'510.3
2017-Nov-18 19:01N 37°03' W 009°19'910.2
2017-Nov-18 18:07N 36°54' W 009°18'110.3
2017-Nov-18 17:59N 36°53' W 009°17'510.7
2017-Nov-18 17:30N 36°49' W 009°13'  
2017-Nov-15 09:38N 37°46' W 009°56'310.9
2017-Nov-15 09:23N 37°48' W 009°56'410.9
2017-Nov-15 08:59N 37°53' W 009°57'510.7
2017-Nov-15 08:31N 37°58' W 009°58'510.4
2017-Nov-15 08:01N 38°03' W 009°59'510.7
2017-Nov-15 07:31N 38°08' W 009°60'510.5
2017-Nov-15 07:01N 38°13' W 010°01'510.6
2017-Nov-15 06:31N 38°19' W 010°02'510.6
2017-Nov-15 06:00N 38°24' W 010°03'510.3
2017-Nov-15 05:29N 38°29' W 010°04'510.1
2017-Nov-15 05:00N 38°34' W 010°05'510.1
2017-Nov-15 04:29N 38°39' W 010°06'510.1
2017-Nov-15 04:00N 38°44' W 010°07'610.0
2017-Nov-15 03:27N 38°49' W 010°07'710.4
2017-Nov-15 02:49N 38°56' W 010°07'310.6
2017-Nov-15 02:30N 38°59' W 010°07'510.3
2017-Nov-15 02:00N 39°04' W 010°07'510.3
2017-Nov-15 01:30N 39°10' W 010°07'510.4
2017-Nov-15 01:00N 39°15' W 010°07'510.2
2017-Nov-15 00:30N 39°20' W 010°07'  
Track history (hours):
 
Tides and Currents Weather Stations Pressure Air Temp Water Temp Dewpoint Dewpoint Depression Visibility Wind Speed Wind Dir Waves Ship Positions

Karen C

Last reported at 2017-Nov-23 02:09 UTC. Time now 2017-Nov-23 22:23 UTC.
Position N 39°16' W 009°50'.

Length 105 m; draft 6.5 m.

Type: Cargo ship. MMSI: 235077715.

Date/timePositionNaut miles runAvg speedWind from/ knotsBaromVisibWave heightAir tempDewpointWater temp
2017-Nov-23 02:09N 39°16' W 009°50'110.4
2017-Nov-23 02:00N 39°14' W 009°50'510.4
2017-Nov-23 01:30N 39°09' W 009°50'510.5
2017-Nov-23 01:00N 39°04' W 009°50'510.2
2017-Nov-23 00:30N 38°59' W 009°50'510.3
2017-Nov-23 00:00N 38°53' W 009°51'510.4
2017-Nov-22 23:30N 38°48' W 009°51'510.2
2017-Nov-22 23:00N 38°43' W 009°50'5 9.7
2017-Nov-22 22:30N 38°38' W 009°48'5 9.2
2017-Nov-22 22:01N 38°35' W 009°44'5 9.4
2017-Nov-22 21:30N 38°32' W 009°40'5 9.9
2017-Nov-22 21:00N 38°28' W 009°35'510.1
2017-Nov-22 20:30N 38°25' W 009°31'510.2
2017-Nov-22 20:00N 38°21' W 009°27'510.3
2017-Nov-22 19:31N 38°17' W 009°22'  
2017-Nov-20 00:29N 37°56' W 008°51'0 0.0
2017-Nov-19 23:59N 37°56' W 008°51'0 0.0
2017-Nov-19 23:29N 37°56' W 008°51'0 0.0
2017-Nov-19 22:59N 37°56' W 008°51'0 0.0
2017-Nov-19 22:29N 37°56' W 008°51'0 0.0
2017-Nov-19 21:59N 37°56' W 008°51'0 0.0
2017-Nov-19 21:29N 37°56' W 008°51'0 0.0
2017-Nov-19 20:59N 37°56' W 008°51'0 0.0
2017-Nov-19 20:29N 37°56' W 008°51'0 0.0
2017-Nov-19 19:59N 37°56' W 008°51'0 0.0
2017-Nov-19 19:29N 37°56' W 008°51'0 0.0
2017-Nov-19 18:59N 37°56' W 008°51'0 0.0
2017-Nov-19 18:29N 37°56' W 008°51'0 0.0
2017-Nov-19 17:59N 37°56' W 008°51'0 0.0
2017-Nov-19 17:29N 37°56' W 008°51'0 0.0
2017-Nov-19 16:56N 37°56' W 008°51'0 0.0
2017-Nov-19 16:26N 37°56' W 008°51'0 0.0
2017-Nov-19 15:59N 37°56' W 008°51'0 0.0
2017-Nov-19 15:29N 37°56' W 008°51'0 0.0
2017-Nov-19 14:59N 37°56' W 008°51'0 0.0
2017-Nov-19 14:29N 37°56' W 008°51'0 0.0
2017-Nov-19 13:59N 37°56' W 008°51'0 0.0
2017-Nov-19 13:29N 37°56' W 008°51'0 0.0
2017-Nov-19 12:59N 37°56' W 008°51'0 0.0
2017-Nov-19 12:29N 37°56' W 008°51'0 0.0
2017-Nov-19 11:59N 37°56' W 008°51'0 0.0
2017-Nov-19 11:29N 37°56' W 008°51'0 0.0
2017-Nov-19 10:59N 37°56' W 008°51'0 0.0
2017-Nov-19 10:29N 37°56' W 008°51'0 0.0
2017-Nov-19 09:59N 37°56' W 008°51'0 0.0
2017-Nov-19 09:29N 37°56' W 008°51'0 0.0
2017-Nov-19 08:59N 37°56' W 008°51'0 0.0
2017-Nov-19 08:29N 37°56' W 008°51'0 0.0
2017-Nov-19 07:59N 37°56' W 008°51'0 0.0
2017-Nov-19 07:29N 37°56' W 008°51'0 0.0
2017-Nov-19 06:59N 37°56' W 008°51'0 0.0
2017-Nov-19 06:29N 37°56' W 008°51'0 0.0
2017-Nov-19 05:59N 37°56' W 008°51'0 0.0
2017-Nov-19 05:29N 37°56' W 008°51'0 0.0
2017-Nov-19 04:59N 37°56' W 008°51'0 0.0
2017-Nov-19 04:29N 37°56' W 008°51'0 0.0
2017-Nov-19 03:59N 37°56' W 008°51'0 0.0
2017-Nov-19 03:29N 37°56' W 008°51'0 0.0
2017-Nov-19 02:59N 37°56' W 008°51'0 0.0
2017-Nov-19 02:29N 37°56' W 008°51'0 0.0
2017-Nov-19 01:59N 37°56' W 008°51'0 0.2
2017-Nov-19 01:30N 37°56' W 008°52'2 3.5
2017-Nov-19 01:01N 37°55' W 008°53'3 7.0
2017-Nov-19 00:31N 37°52' W 008°55'2 3.6
2017-Nov-19 00:01N 37°50' W 008°56'4 7.2
2017-Nov-18 23:31N 37°47' W 008°57'5 9.4
2017-Nov-18 23:01N 37°42' W 008°60'510.4
2017-Nov-18 22:30N 37°38' W 009°03'510.9
2017-Nov-18 22:00N 37°33' W 009°05'511.0
2017-Nov-18 21:31N 37°28' W 009°08'510.8
2017-Nov-18 21:00N 37°23' W 009°10'510.9
2017-Nov-18 20:30N 37°17' W 009°12'510.5
2017-Nov-18 20:01N 37°12' W 009°14'510.1
2017-Nov-18 19:30N 37°08' W 009°17'510.3
2017-Nov-18 19:01N 37°03' W 009°19'910.2
2017-Nov-18 18:07N 36°54' W 009°18'110.3
2017-Nov-18 17:59N 36°53' W 009°17'510.7
2017-Nov-18 17:30N 36°49' W 009°13'  
2017-Nov-15 09:38N 37°46' W 009°56'310.9
2017-Nov-15 09:23N 37°48' W 009°56'410.9
2017-Nov-15 08:59N 37°53' W 009°57'510.7
2017-Nov-15 08:31N 37°58' W 009°58'510.4
2017-Nov-15 08:01N 38°03' W 009°59'510.7
2017-Nov-15 07:31N 38°08' W 009°60'510.5
2017-Nov-15 07:01N 38°13' W 010°01'510.6
2017-Nov-15 06:31N 38°19' W 010°02'510.6
2017-Nov-15 06:00N 38°24' W 010°03'510.3
2017-Nov-15 05:29N 38°29' W 010°04'510.1
2017-Nov-15 05:00N 38°34' W 010°05'510.1
2017-Nov-15 04:29N 38°39' W 010°06'510.1
2017-Nov-15 04:00N 38°44' W 010°07'610.0
2017-Nov-15 03:27N 38°49' W 010°07'710.4
2017-Nov-15 02:49N 38°56' W 010°07'310.6
2017-Nov-15 02:30N 38°59' W 010°07'510.3
2017-Nov-15 02:00N 39°04' W 010°07'510.3
2017-Nov-15 01:30N 39°10' W 010°07'510.4
2017-Nov-15 01:00N 39°15' W 010°07'510.2
2017-Nov-15 00:30N 39°20' W 010°07'  

Dump ship's entire track history